sensor_id;sensor_type;location;lat;lon;timestamp;P1;durP1;ratioP1;P2;durP2;ratioP2
12962;SDS011;6546;49.882;8.666;2022-07-12T00:02:22;2.10;;;1.90;;
12962;SDS011;6546;49.882;8.666;2022-07-12T00:04:49;4.20;;;2.07;;
12962;SDS011;6546;49.882;8.666;2022-07-12T00:07:18;1.90;;;1.80;;
12962;SDS011;6546;49.882;8.666;2022-07-12T00:09:45;2.27;;;1.73;;
12962;SDS011;6546;49.882;8.666;2022-07-12T00:12:13;1.73;;;1.63;;
12962;SDS011;6546;49.882;8.666;2022-07-12T00:14:40;1.57;;;1.47;;
12962;SDS011;6546;49.882;8.666;2022-07-12T00:17:07;1.60;;;1.50;;
12962;SDS011;6546;49.882;8.666;2022-07-12T00:19:34;1.77;;;1.67;;
12962;SDS011;6546;49.882;8.666;2022-07-12T00:22:01;2.20;;;2.00;;
12962;SDS011;6546;49.882;8.666;2022-07-12T00:24:29;2.70;;;1.70;;
12962;SDS011;6546;49.882;8.666;2022-07-12T00:26:56;1.60;;;1.50;;
12962;SDS011;6546;49.882;8.666;2022-07-12T00:29:23;2.17;;;1.87;;
12962;SDS011;6546;49.882;8.666;2022-07-12T00:31:50;1.80;;;1.70;;
12962;SDS011;6546;49.882;8.666;2022-07-12T00:34:17;1.70;;;1.60;;
12962;SDS011;6546;49.882;8.666;2022-07-12T00:36:44;1.80;;;1.70;;
12962;SDS011;6546;49.882;8.666;2022-07-12T00:39:11;1.70;;;1.60;;
12962;SDS011;6546;49.882;8.666;2022-07-12T00:41:40;1.90;;;1.70;;
12962;SDS011;6546;49.882;8.666;2022-07-12T00:44:07;1.60;;;1.50;;
12962;SDS011;6546;49.882;8.666;2022-07-12T00:46:34;3.33;;;1.73;;
12962;SDS011;6546;49.882;8.666;2022-07-12T00:49:02;2.67;;;2.20;;
12962;SDS011;6546;49.882;8.666;2022-07-12T00:51:28;1.93;;;1.80;;
12962;SDS011;6546;49.882;8.666;2022-07-12T00:53:56;2.80;;;1.83;;
12962;SDS011;6546;49.882;8.666;2022-07-12T00:56:25;3.50;;;1.90;;
12962;SDS011;6546;49.882;8.666;2022-07-12T00:58:54;2.63;;;1.50;;
12962;SDS011;6546;49.882;8.666;2022-07-12T01:01:21;1.90;;;1.80;;
12962;SDS011;6546;49.882;8.666;2022-07-12T01:03:51;3.43;;;1.70;;
12962;SDS011;6546;49.882;8.666;2022-07-12T01:06:18;2.03;;;1.80;;
12962;SDS011;6546;49.882;8.666;2022-07-12T01:08:46;1.97;;;1.73;;
12962;SDS011;6546;49.882;8.666;2022-07-12T01:11:14;1.97;;;1.87;;
12962;SDS011;6546;49.882;8.666;2022-07-12T01:13:42;2.07;;;1.80;;
12962;SDS011;6546;49.882;8.666;2022-07-12T01:16:13;2.00;;;1.90;;
12962;SDS011;6546;49.882;8.666;2022-07-12T01:18:40;2.00;;;1.80;;
12962;SDS011;6546;49.882;8.666;2022-07-12T01:21:09;4.03;;;1.97;;
12962;SDS011;6546;49.882;8.666;2022-07-12T01:23:39;1.97;;;1.87;;
12962;SDS011;6546;49.882;8.666;2022-07-12T01:26:07;1.90;;;1.80;;
12962;SDS011;6546;49.882;8.666;2022-07-12T01:28:34;1.70;;;1.60;;
12962;SDS011;6546;49.882;8.666;2022-07-12T01:31:01;2.40;;;1.90;;
12962;SDS011;6546;49.882;8.666;2022-07-12T01:33:28;1.63;;;1.53;;
12962;SDS011;6546;49.882;8.666;2022-07-12T01:35:55;2.63;;;2.10;;
12962;SDS011;6546;49.882;8.666;2022-07-12T01:38:23;1.90;;;1.80;;
12962;SDS011;6546;49.882;8.666;2022-07-12T01:40:52;2.23;;;1.90;;
12962;SDS011;6546;49.882;8.666;2022-07-12T01:43:20;1.70;;;1.60;;
12962;SDS011;6546;49.882;8.666;2022-07-12T01:45:47;1.67;;;1.57;;
12962;SDS011;6546;49.882;8.666;2022-07-12T01:48:14;1.50;;;1.40;;
12962;SDS011;6546;49.882;8.666;2022-07-12T01:50:42;2.07;;;1.87;;
12962;SDS011;6546;49.882;8.666;2022-07-12T01:53:09;2.03;;;1.80;;
12962;SDS011;6546;49.882;8.666;2022-07-12T01:55:37;1.90;;;1.80;;
12962;SDS011;6546;49.882;8.666;2022-07-12T01:58:06;1.90;;;1.80;;
12962;SDS011;6546;49.882;8.666;2022-07-12T02:00:33;1.80;;;1.70;;
12962;SDS011;6546;49.882;8.666;2022-07-12T02:03:00;1.97;;;1.77;;
12962;SDS011;6546;49.882;8.666;2022-07-12T02:05:29;1.80;;;1.70;;
12962;SDS011;6546;49.882;8.666;2022-07-12T02:07:58;2.40;;;2.20;;
12962;SDS011;6546;49.882;8.666;2022-07-12T02:10:25;2.20;;;2.00;;
12962;SDS011;6546;49.882;8.666;2022-07-12T02:12:53;1.90;;;1.80;;
12962;SDS011;6546;49.882;8.666;2022-07-12T02:15:21;3.10;;;1.80;;
12962;SDS011;6546;49.882;8.666;2022-07-12T02:17:48;2.17;;;1.90;;
12962;SDS011;6546;49.882;8.666;2022-07-12T02:20:16;2.77;;;2.00;;
12962;SDS011;6546;49.882;8.666;2022-07-12T02:22:42;3.13;;;1.80;;
12962;SDS011;6546;49.882;8.666;2022-07-12T02:25:09;1.90;;;1.80;;
12962;SDS011;6546;49.882;8.666;2022-07-12T02:27:38;2.50;;;2.30;;
12962;SDS011;6546;49.882;8.666;2022-07-12T02:30:06;2.07;;;1.87;;
12962;SDS011;6546;49.882;8.666;2022-07-12T02:32:38;2.40;;;2.20;;
12962;SDS011;6546;49.882;8.666;2022-07-12T02:35:05;1.93;;;1.83;;
12962;SDS011;6546;49.882;8.666;2022-07-12T02:37:34;2.30;;;2.20;;
12962;SDS011;6546;49.882;8.666;2022-07-12T02:40:02;2.10;;;2.00;;
12962;SDS011;6546;49.882;8.666;2022-07-12T02:42:49;2.57;;;2.37;;
12962;SDS011;6546;49.882;8.666;2022-07-12T02:45:16;2.30;;;2.20;;
12962;SDS011;6546;49.882;8.666;2022-07-12T02:47:46;3.07;;;2.00;;
12962;SDS011;6546;49.882;8.666;2022-07-12T02:50:13;2.20;;;2.10;;
12962;SDS011;6546;49.882;8.666;2022-07-12T02:52:41;2.90;;;2.10;;
12962;SDS011;6546;49.882;8.666;2022-07-12T02:55:08;2.77;;;2.00;;
12962;SDS011;6546;49.882;8.666;2022-07-12T02:57:36;3.17;;;2.27;;
12962;SDS011;6546;49.882;8.666;2022-07-12T03:00:04;2.03;;;1.77;;
12962;SDS011;6546;49.882;8.666;2022-07-12T03:02:33;2.87;;;2.20;;
12962;SDS011;6546;49.882;8.666;2022-07-12T03:05:02;4.00;;;2.30;;
12962;SDS011;6546;49.882;8.666;2022-07-12T03:07:31;2.10;;;2.00;;
12962;SDS011;6546;49.882;8.666;2022-07-12T03:09:58;2.67;;;2.00;;
12962;SDS011;6546;49.882;8.666;2022-07-12T03:12:26;2.17;;;1.93;;
12962;SDS011;6546;49.882;8.666;2022-07-12T03:14:54;2.80;;;2.43;;
12962;SDS011;6546;49.882;8.666;2022-07-12T03:17:22;2.23;;;2.00;;
12962;SDS011;6546;49.882;8.666;2022-07-12T03:19:49;2.30;;;2.20;;
12962;SDS011;6546;49.882;8.666;2022-07-12T03:22:17;2.37;;;2.13;;
12962;SDS011;6546;49.882;8.666;2022-07-12T03:24:44;3.27;;;2.97;;
12962;SDS011;6546;49.882;8.666;2022-07-12T03:27:12;2.27;;;2.00;;
12962;SDS011;6546;49.882;8.666;2022-07-12T03:29:39;2.30;;;2.10;;
12962;SDS011;6546;49.882;8.666;2022-07-12T03:32:09;2.40;;;2.10;;
12962;SDS011;6546;49.882;8.666;2022-07-12T03:34:36;2.63;;;2.20;;
12962;SDS011;6546;49.882;8.666;2022-07-12T03:37:03;2.47;;;2.27;;
12962;SDS011;6546;49.882;8.666;2022-07-12T03:39:32;2.93;;;2.20;;
12962;SDS011;6546;49.882;8.666;2022-07-12T03:41:59;2.97;;;2.30;;
12962;SDS011;6546;49.882;8.666;2022-07-12T03:44:26;2.47;;;2.27;;
12962;SDS011;6546;49.882;8.666;2022-07-12T03:46:55;2.60;;;2.33;;
12962;SDS011;6546;49.882;8.666;2022-07-12T03:49:23;4.03;;;1.90;;
12962;SDS011;6546;49.882;8.666;2022-07-12T03:51:50;2.53;;;2.10;;
12962;SDS011;6546;49.882;8.666;2022-07-12T03:54:17;3.40;;;2.30;;
12962;SDS011;6546;49.882;8.666;2022-07-12T03:56:45;2.70;;;1.93;;
12962;SDS011;6546;49.882;8.666;2022-07-12T03:59:30;6.57;;;2.03;;
12962;SDS011;6546;49.882;8.666;2022-07-12T04:01:59;1.90;;;1.80;;
12962;SDS011;6546;49.882;8.666;2022-07-12T04:04:27;2.37;;;2.17;;
12962;SDS011;6546;49.882;8.666;2022-07-12T04:06:54;2.30;;;2.00;;
12962;SDS011;6546;49.882;8.666;2022-07-12T04:09:21;3.63;;;2.37;;
12962;SDS011;6546;49.882;8.666;2022-07-12T04:11:50;3.80;;;3.40;;
12962;SDS011;6546;49.882;8.666;2022-07-12T04:14:19;8.37;;;4.23;;
12962;SDS011;6546;49.882;8.666;2022-07-12T04:16:46;5.07;;;4.30;;
12962;SDS011;6546;49.882;8.666;2022-07-12T04:19:13;7.37;;;5.13;;
12962;SDS011;6546;49.882;8.666;2022-07-12T04:21:43;7.70;;;6.10;;
12962;SDS011;6546;49.882;8.666;2022-07-12T04:24:10;7.73;;;5.97;;
12962;SDS011;6546;49.882;8.666;2022-07-12T04:26:37;7.53;;;5.87;;
12962;SDS011;6546;49.882;8.666;2022-07-12T04:29:06;6.97;;;5.17;;
12962;SDS011;6546;49.882;8.666;2022-07-12T04:31:33;7.47;;;5.57;;
12962;SDS011;6546;49.882;8.666;2022-07-12T04:34:00;7.83;;;5.20;;
12962;SDS011;6546;49.882;8.666;2022-07-12T04:36:27;7.13;;;4.97;;
12962;SDS011;6546;49.882;8.666;2022-07-12T04:38:53;6.13;;;4.57;;
12962;SDS011;6546;49.882;8.666;2022-07-12T04:41:20;6.43;;;4.40;;
12962;SDS011;6546;49.882;8.666;2022-07-12T04:43:47;4.97;;;4.10;;
12962;SDS011;6546;49.882;8.666;2022-07-12T04:46:16;4.77;;;4.27;;
12962;SDS011;6546;49.882;8.666;2022-07-12T04:48:43;5.87;;;3.73;;
12962;SDS011;6546;49.882;8.666;2022-07-12T04:51:11;5.53;;;3.73;;
12962;SDS011;6546;49.882;8.666;2022-07-12T04:53:40;4.67;;;3.83;;
12962;SDS011;6546;49.882;8.666;2022-07-12T04:56:07;5.17;;;3.80;;
12962;SDS011;6546;49.882;8.666;2022-07-12T04:58:33;5.20;;;3.60;;
12962;SDS011;6546;49.882;8.666;2022-07-12T05:01:01;5.40;;;3.87;;
12962;SDS011;6546;49.882;8.666;2022-07-12T05:03:31;5.50;;;4.40;;
12962;SDS011;6546;49.882;8.666;2022-07-12T05:05:58;6.53;;;5.03;;
12962;SDS011;6546;49.882;8.666;2022-07-12T05:08:25;6.13;;;4.33;;
12962;SDS011;6546;49.882;8.666;2022-07-12T05:10:52;5.33;;;3.83;;
12962;SDS011;6546;49.882;8.666;2022-07-12T05:13:19;4.30;;;3.33;;
12962;SDS011;6546;49.882;8.666;2022-07-12T05:15:47;3.77;;;2.77;;
12962;SDS011;6546;49.882;8.666;2022-07-12T05:18:14;3.57;;;2.60;;
12962;SDS011;6546;49.882;8.666;2022-07-12T05:20:45;3.70;;;3.13;;
12962;SDS011;6546;49.882;8.666;2022-07-12T05:23:13;3.73;;;2.80;;
12962;SDS011;6546;49.882;8.666;2022-07-12T05:25:41;2.80;;;2.50;;
12962;SDS011;6546;49.882;8.666;2022-07-12T05:28:09;3.27;;;2.27;;
12962;SDS011;6546;49.882;8.666;2022-07-12T05:30:36;3.40;;;2.83;;
12962;SDS011;6546;49.882;8.666;2022-07-12T05:33:03;2.60;;;2.40;;
12962;SDS011;6546;49.882;8.666;2022-07-12T05:35:31;5.73;;;2.50;;
12962;SDS011;6546;49.882;8.666;2022-07-12T05:38:00;2.50;;;2.30;;
12962;SDS011;6546;49.882;8.666;2022-07-12T05:40:28;4.13;;;2.67;;
12962;SDS011;6546;49.882;8.666;2022-07-12T05:42:55;4.47;;;2.50;;
12962;SDS011;6546;49.882;8.666;2022-07-12T05:45:22;3.07;;;2.40;;
12962;SDS011;6546;49.882;8.666;2022-07-12T05:47:50;4.63;;;3.30;;
12962;SDS011;6546;49.882;8.666;2022-07-12T05:50:17;4.63;;;2.40;;
12962;SDS011;6546;49.882;8.666;2022-07-12T05:52:45;4.43;;;2.37;;
12962;SDS011;6546;49.882;8.666;2022-07-12T05:55:31;2.90;;;2.70;;
12962;SDS011;6546;49.882;8.666;2022-07-12T05:57:58;3.63;;;2.67;;
12962;SDS011;6546;49.882;8.666;2022-07-12T06:00:31;5.47;;;2.63;;
12962;SDS011;6546;49.882;8.666;2022-07-12T06:03:14;2.80;;;2.60;;
12962;SDS011;6546;49.882;8.666;2022-07-12T06:05:41;3.33;;;2.53;;
12962;SDS011;6546;49.882;8.666;2022-07-12T06:08:09;2.70;;;2.50;;
12962;SDS011;6546;49.882;8.666;2022-07-12T06:10:37;3.60;;;2.30;;
12962;SDS011;6546;49.882;8.666;2022-07-12T06:13:04;3.63;;;2.27;;
12962;SDS011;6546;49.882;8.666;2022-07-12T06:15:31;3.00;;;2.60;;
12962;SDS011;6546;49.882;8.666;2022-07-12T06:17:59;2.93;;;2.10;;
12962;SDS011;6546;49.882;8.666;2022-07-12T06:20:26;3.00;;;2.53;;
12962;SDS011;6546;49.882;8.666;2022-07-12T06:22:53;2.43;;;2.23;;
12962;SDS011;6546;49.882;8.666;2022-07-12T06:25:20;2.43;;;2.23;;
12962;SDS011;6546;49.882;8.666;2022-07-12T06:27:50;3.60;;;2.30;;
12962;SDS011;6546;49.882;8.666;2022-07-12T06:30:17;2.70;;;2.50;;
12962;SDS011;6546;49.882;8.666;2022-07-12T06:32:45;4.23;;;2.37;;
12962;SDS011;6546;49.882;8.666;2022-07-12T06:35:13;4.50;;;2.13;;
12962;SDS011;6546;49.882;8.666;2022-07-12T06:37:40;4.53;;;2.60;;
12962;SDS011;6546;49.882;8.666;2022-07-12T06:40:07;4.23;;;2.33;;
12962;SDS011;6546;49.882;8.666;2022-07-12T06:42:35;2.50;;;2.30;;
12962;SDS011;6546;49.882;8.666;2022-07-12T06:45:04;3.77;;;2.40;;
12962;SDS011;6546;49.882;8.666;2022-07-12T06:47:33;2.53;;;2.33;;
12962;SDS011;6546;49.882;8.666;2022-07-12T06:50:00;4.17;;;2.20;;
12962;SDS011;6546;49.882;8.666;2022-07-12T06:52:27;2.70;;;2.50;;
12962;SDS011;6546;49.882;8.666;2022-07-12T06:54:56;2.50;;;2.00;;
12962;SDS011;6546;49.882;8.666;2022-07-12T06:57:23;2.77;;;2.20;;
12962;SDS011;6546;49.882;8.666;2022-07-12T06:59:52;2.57;;;2.10;;
12962;SDS011;6546;49.882;8.666;2022-07-12T07:02:20;2.50;;;2.10;;
12962;SDS011;6546;49.882;8.666;2022-07-12T07:04:48;4.90;;;2.10;;
12962;SDS011;6546;49.882;8.666;2022-07-12T07:07:15;2.63;;;1.77;;
12962;SDS011;6546;49.882;8.666;2022-07-12T07:09:46;2.93;;;2.13;;
12962;SDS011;6546;49.882;8.666;2022-07-12T07:12:15;2.80;;;1.80;;
12962;SDS011;6546;49.882;8.666;2022-07-12T07:14:42;2.07;;;1.80;;
12962;SDS011;6546;49.882;8.666;2022-07-12T07:17:09;2.13;;;1.93;;
12962;SDS011;6546;49.882;8.666;2022-07-12T07:19:38;2.13;;;1.97;;
12962;SDS011;6546;49.882;8.666;2022-07-12T07:22:06;3.43;;;1.93;;
12962;SDS011;6546;49.882;8.666;2022-07-12T07:24:33;1.70;;;1.60;;
12962;SDS011;6546;49.882;8.666;2022-07-12T07:27:00;1.80;;;1.50;;
12962;SDS011;6546;49.882;8.666;2022-07-12T07:29:28;2.23;;;1.70;;
12962;SDS011;6546;49.882;8.666;2022-07-12T07:32:13;3.07;;;1.97;;
12962;SDS011;6546;49.882;8.666;2022-07-12T07:34:42;2.93;;;1.70;;
12962;SDS011;6546;49.882;8.666;2022-07-12T07:37:08;2.17;;;1.70;;
12962;SDS011;6546;49.882;8.666;2022-07-12T07:39:39;2.60;;;1.77;;
12962;SDS011;6546;49.882;8.666;2022-07-12T07:42:07;1.87;;;1.30;;
12962;SDS011;6546;49.882;8.666;2022-07-12T07:44:34;1.77;;;1.60;;
12962;SDS011;6546;49.882;8.666;2022-07-12T07:47:01;2.33;;;1.83;;
12962;SDS011;6546;49.882;8.666;2022-07-12T07:49:28;1.60;;;1.50;;
12962;SDS011;6546;49.882;8.666;2022-07-12T07:51:57;2.03;;;1.33;;
12962;SDS011;6546;49.882;8.666;2022-07-12T07:54:24;3.63;;;1.50;;
12962;SDS011;6546;49.882;8.666;2022-07-12T07:56:51;1.90;;;1.50;;
12962;SDS011;6546;49.882;8.666;2022-07-12T07:59:19;1.50;;;1.40;;
12962;SDS011;6546;49.882;8.666;2022-07-12T08:01:46;2.50;;;1.37;;
12962;SDS011;6546;49.882;8.666;2022-07-12T08:04:17;1.30;;;1.17;;
12962;SDS011;6546;49.882;8.666;2022-07-12T08:06:46;6.37;;;1.53;;
12962;SDS011;6546;49.882;8.666;2022-07-12T08:09:15;2.53;;;1.20;;
12962;SDS011;6546;49.882;8.666;2022-07-12T08:11:43;1.37;;;1.27;;
12962;SDS011;6546;49.882;8.666;2022-07-12T08:14:10;1.43;;;1.33;;
12962;SDS011;6546;49.882;8.666;2022-07-12T08:16:37;2.60;;;1.37;;
12962;SDS011;6546;49.882;8.666;2022-07-12T08:19:04;1.70;;;1.50;;
12962;SDS011;6546;49.882;8.666;2022-07-12T08:21:32;1.73;;;1.20;;
12962;SDS011;6546;49.882;8.666;2022-07-12T08:23:59;1.23;;;1.17;;
12962;SDS011;6546;49.882;8.666;2022-07-12T08:26:28;2.53;;;1.30;;
12962;SDS011;6546;49.882;8.666;2022-07-12T08:28:55;1.57;;;1.30;;
12962;SDS011;6546;49.882;8.666;2022-07-12T08:31:22;2.30;;;1.30;;
12962;SDS011;6546;49.882;8.666;2022-07-12T08:33:48;2.27;;;1.30;;
12962;SDS011;6546;49.882;8.666;2022-07-12T08:36:16;1.30;;;1.20;;
12962;SDS011;6546;49.882;8.666;2022-07-12T08:38:43;1.77;;;1.00;;
12962;SDS011;6546;49.882;8.666;2022-07-12T08:41:11;1.43;;;1.33;;
12962;SDS011;6546;49.882;8.666;2022-07-12T08:43:41;1.60;;;1.50;;
12962;SDS011;6546;49.882;8.666;2022-07-12T08:46:08;1.90;;;1.10;;
12962;SDS011;6546;49.882;8.666;2022-07-12T08:48:36;2.20;;;1.10;;
12962;SDS011;6546;49.882;8.666;2022-07-12T08:51:05;1.60;;;1.07;;
12962;SDS011;6546;49.882;8.666;2022-07-12T08:53:33;1.23;;;1.20;;
12962;SDS011;6546;49.882;8.666;2022-07-12T08:56:01;3.03;;;1.07;;
12962;SDS011;6546;49.882;8.666;2022-07-12T08:58:30;3.00;;;1.40;;
12962;SDS011;6546;49.882;8.666;2022-07-12T09:00:58;2.80;;;0.83;;
12962;SDS011;6546;49.882;8.666;2022-07-12T09:03:26;2.33;;;1.10;;
12962;SDS011;6546;49.882;8.666;2022-07-12T09:05:54;1.10;;;1.00;;
12962;SDS011;6546;49.882;8.666;2022-07-12T09:08:24;1.30;;;1.20;;
12962;SDS011;6546;49.882;8.666;2022-07-12T09:10:56;2.37;;;1.10;;
12962;SDS011;6546;49.882;8.666;2022-07-12T09:16:20;0.90;;;0.90;;
12962;SDS011;6546;49.882;8.666;2022-07-12T09:18:48;0.80;;;0.80;;
12962;SDS011;6546;49.882;8.666;2022-07-12T09:21:22;1.57;;;1.13;;
12962;SDS011;6546;49.882;8.666;2022-07-12T09:23:53;1.00;;;1.00;;
12962;SDS011;6546;49.882;8.666;2022-07-12T09:26:22;1.73;;;1.00;;
12962;SDS011;6546;49.882;8.666;2022-07-12T09:28:50;1.90;;;1.20;;
12962;SDS011;6546;49.882;8.666;2022-07-12T09:31:20;1.70;;;0.90;;
12962;SDS011;6546;49.882;8.666;2022-07-12T09:33:59;2.30;;;1.00;;
12962;SDS011;6546;49.882;8.666;2022-07-12T09:36:55;2.30;;;1.10;;
12962;SDS011;6546;49.882;8.666;2022-07-12T09:39:23;1.23;;;1.10;;
12962;SDS011;6546;49.882;8.666;2022-07-12T09:41:52;1.33;;;1.00;;
12962;SDS011;6546;49.882;8.666;2022-07-12T09:44:23;2.00;;;1.17;;
12962;SDS011;6546;49.882;8.666;2022-07-12T09:46:52;1.30;;;1.20;;
12962;SDS011;6546;49.882;8.666;2022-07-12T09:49:21;1.10;;;1.00;;
12962;SDS011;6546;49.882;8.666;2022-07-12T09:51:49;1.10;;;1.00;;
12962;SDS011;6546;49.882;8.666;2022-07-12T09:54:21;2.30;;;1.10;;
12962;SDS011;6546;49.882;8.666;2022-07-12T09:56:52;1.13;;;1.00;;
12962;SDS011;6546;49.882;8.666;2022-07-12T09:59:22;1.07;;;0.93;;
12962;SDS011;6546;49.882;8.666;2022-07-12T10:01:50;1.30;;;1.03;;
12962;SDS011;6546;49.882;8.666;2022-07-12T10:04:22;3.00;;;1.00;;
12962;SDS011;6546;49.882;8.666;2022-07-12T10:06:49;1.07;;;0.90;;
12962;SDS011;6546;49.882;8.666;2022-07-12T10:09:17;2.33;;;1.10;;
12962;SDS011;6546;49.882;8.666;2022-07-12T10:11:46;3.37;;;1.10;;
12962;SDS011;6546;49.882;8.666;2022-07-12T10:14:15;1.10;;;1.00;;
12962;SDS011;6546;49.882;8.666;2022-07-12T10:16:44;1.90;;;1.07;;
12962;SDS011;6546;49.882;8.666;2022-07-12T10:19:24;1.73;;;1.17;;
12962;SDS011;6546;49.882;8.666;2022-07-12T10:21:54;1.10;;;1.00;;
12962;SDS011;6546;49.882;8.666;2022-07-12T10:27:27;0.90;;;0.90;;
12962;SDS011;6546;49.882;8.666;2022-07-12T10:30:20;1.00;;;1.00;;
12962;SDS011;6546;49.882;8.666;2022-07-12T10:32:50;0.90;;;0.90;;
12962;SDS011;6546;49.882;8.666;2022-07-12T10:35:22;1.33;;;0.80;;
12962;SDS011;6546;49.882;8.666;2022-07-12T10:40:44;2.53;;;1.27;;
12962;SDS011;6546;49.882;8.666;2022-07-12T10:43:16;3.30;;;0.83;;
12962;SDS011;6546;49.882;8.666;2022-07-12T10:46:04;2.92;;;1.10;;
12962;SDS011;6546;49.882;8.666;2022-07-12T10:48:40;0.80;;;0.80;;
12962;SDS011;6546;49.882;8.666;2022-07-12T10:51:16;1.40;;;0.70;;
12962;SDS011;6546;49.882;8.666;2022-07-12T10:53:46;2.13;;;1.53;;
12962;SDS011;6546;49.882;8.666;2022-07-12T10:56:16;0.90;;;0.77;;
12962;SDS011;6546;49.882;8.666;2022-07-12T10:58:48;1.63;;;0.90;;
12962;SDS011;6546;49.882;8.666;2022-07-12T11:01:19;0.73;;;0.70;;
12962;SDS011;6546;49.882;8.666;2022-07-12T11:03:48;0.90;;;0.90;;
12962;SDS011;6546;49.882;8.666;2022-07-12T11:06:18;2.10;;;1.00;;
12962;SDS011;6546;49.882;8.666;2022-07-12T11:08:46;1.02;;;0.90;;
12962;SDS011;6546;49.882;8.666;2022-07-12T11:11:15;1.07;;;0.97;;
12962;SDS011;6546;49.882;8.666;2022-07-12T11:13:43;0.93;;;0.83;;
12962;SDS011;6546;49.882;8.666;2022-07-12T11:16:11;0.93;;;0.93;;
12962;SDS011;6546;49.882;8.666;2022-07-12T11:18:38;0.97;;;0.97;;
12962;SDS011;6546;49.882;8.666;2022-07-12T11:21:05;0.70;;;0.70;;
12962;SDS011;6546;49.882;8.666;2022-07-12T11:23:34;4.77;;;0.80;;
12962;SDS011;6546;49.882;8.666;2022-07-12T11:26:02;1.03;;;0.80;;
12962;SDS011;6546;49.882;8.666;2022-07-12T11:28:30;0.77;;;0.77;;
12962;SDS011;6546;49.882;8.666;2022-07-12T11:31:02;0.80;;;0.80;;
12962;SDS011;6546;49.882;8.666;2022-07-12T11:33:30;0.83;;;0.77;;
12962;SDS011;6546;49.882;8.666;2022-07-12T11:36:00;0.70;;;0.70;;
12962;SDS011;6546;49.882;8.666;2022-07-12T11:38:29;1.70;;;0.98;;
12962;SDS011;6546;49.882;8.666;2022-07-12T11:40:59;0.90;;;0.90;;
12962;SDS011;6546;49.882;8.666;2022-07-12T11:43:28;1.47;;;0.80;;
12962;SDS011;6546;49.882;8.666;2022-07-12T11:45:56;0.68;;;0.60;;
12962;SDS011;6546;49.882;8.666;2022-07-12T11:48:23;0.73;;;0.73;;
12962;SDS011;6546;49.882;8.666;2022-07-12T11:50:51;1.17;;;1.05;;
12962;SDS011;6546;49.882;8.666;2022-07-12T11:53:20;0.77;;;0.77;;
12962;SDS011;6546;49.882;8.666;2022-07-12T11:55:48;2.77;;;0.80;;
12962;SDS011;6546;49.882;8.666;2022-07-12T11:58:18;1.27;;;0.70;;
12962;SDS011;6546;49.882;8.666;2022-07-12T12:00:47;2.30;;;1.10;;
12962;SDS011;6546;49.882;8.666;2022-07-12T12:03:15;2.05;;;1.00;;
12962;SDS011;6546;49.882;8.666;2022-07-12T12:05:43;0.70;;;0.70;;
12962;SDS011;6546;49.882;8.666;2022-07-12T12:08:13;1.15;;;0.90;;
12962;SDS011;6546;49.882;8.666;2022-07-12T12:10:41;1.50;;;1.00;;
12962;SDS011;6546;49.882;8.666;2022-07-12T12:13:13;2.00;;;0.93;;
12962;SDS011;6546;49.882;8.666;2022-07-12T12:15:48;0.87;;;0.83;;
12962;SDS011;6546;49.882;8.666;2022-07-12T12:18:16;0.80;;;0.80;;
12962;SDS011;6546;49.882;8.666;2022-07-12T12:20:56;2.13;;;0.90;;
12962;SDS011;6546;49.882;8.666;2022-07-12T12:23:24;1.00;;;1.00;;
12962;SDS011;6546;49.882;8.666;2022-07-12T12:25:52;0.80;;;0.80;;
12962;SDS011;6546;49.882;8.666;2022-07-12T12:28:19;2.13;;;0.93;;
12962;SDS011;6546;49.882;8.666;2022-07-12T12:30:52;1.77;;;1.00;;
12962;SDS011;6546;49.882;8.666;2022-07-12T12:36:15;3.27;;;0.80;;
12962;SDS011;6546;49.882;8.666;2022-07-12T12:38:44;1.77;;;0.80;;
12962;SDS011;6546;49.882;8.666;2022-07-12T12:41:12;0.80;;;0.80;;
12962;SDS011;6546;49.882;8.666;2022-07-12T12:43:40;1.03;;;0.93;;
12962;SDS011;6546;49.882;8.666;2022-07-12T12:46:09;1.23;;;0.80;;
12962;SDS011;6546;49.882;8.666;2022-07-12T12:48:39;0.80;;;0.80;;
12962;SDS011;6546;49.882;8.666;2022-07-12T12:51:13;1.17;;;1.10;;
12962;SDS011;6546;49.882;8.666;2022-07-12T12:53:41;1.17;;;1.00;;
12962;SDS011;6546;49.882;8.666;2022-07-12T12:56:11;1.00;;;0.88;;
12962;SDS011;6546;49.882;8.666;2022-07-12T12:58:40;0.97;;;0.80;;
12962;SDS011;6546;49.882;8.666;2022-07-12T13:01:10;0.87;;;0.60;;
12962;SDS011;6546;49.882;8.666;2022-07-12T13:03:37;0.73;;;0.70;;
12962;SDS011;6546;49.882;8.666;2022-07-12T13:06:04;0.80;;;0.80;;
12962;SDS011;6546;49.882;8.666;2022-07-12T13:08:31;0.93;;;0.83;;
12962;SDS011;6546;49.882;8.666;2022-07-12T13:10:58;1.73;;;0.77;;
12962;SDS011;6546;49.882;8.666;2022-07-12T13:13:43;1.73;;;0.80;;
12962;SDS011;6546;49.882;8.666;2022-07-12T13:16:12;0.70;;;0.70;;
12962;SDS011;6546;49.882;8.666;2022-07-12T13:18:39;0.80;;;0.80;;
12962;SDS011;6546;49.882;8.666;2022-07-12T13:21:06;0.93;;;0.60;;
12962;SDS011;6546;49.882;8.666;2022-07-12T13:23:34;1.87;;;0.80;;
12962;SDS011;6546;49.882;8.666;2022-07-12T13:26:01;2.80;;;0.80;;
12962;SDS011;6546;49.882;8.666;2022-07-12T13:28:28;2.00;;;1.10;;
12962;SDS011;6546;49.882;8.666;2022-07-12T13:30:57;0.70;;;0.70;;
12962;SDS011;6546;49.882;8.666;2022-07-12T13:33:26;0.70;;;0.70;;
12962;SDS011;6546;49.882;8.666;2022-07-12T13:35:53;0.80;;;0.80;;
12962;SDS011;6546;49.882;8.666;2022-07-12T13:38:20;1.27;;;0.93;;
12962;SDS011;6546;49.882;8.666;2022-07-12T13:40:47;1.03;;;0.70;;
12962;SDS011;6546;49.882;8.666;2022-07-12T13:43:14;0.63;;;0.63;;
12962;SDS011;6546;49.882;8.666;2022-07-12T13:45:42;0.75;;;0.70;;
12962;SDS011;6546;49.882;8.666;2022-07-12T13:48:10;0.60;;;0.60;;
12962;SDS011;6546;49.882;8.666;2022-07-12T13:50:38;1.45;;;0.75;;
12962;SDS011;6546;49.882;8.666;2022-07-12T13:53:05;0.73;;;0.73;;
12962;SDS011;6546;49.882;8.666;2022-07-12T13:55:33;2.63;;;0.90;;
12962;SDS011;6546;49.882;8.666;2022-07-12T13:58:00;1.42;;;0.70;;
12962;SDS011;6546;49.882;8.666;2022-07-12T14:00:27;1.00;;;0.73;;
12962;SDS011;6546;49.882;8.666;2022-07-12T14:02:54;1.70;;;0.70;;
12962;SDS011;6546;49.882;8.666;2022-07-12T14:05:21;2.60;;;0.87;;
12962;SDS011;6546;49.882;8.666;2022-07-12T14:07:50;0.95;;;0.70;;
12962;SDS011;6546;49.882;8.666;2022-07-12T14:10:21;3.15;;;0.80;;
12962;SDS011;6546;49.882;8.666;2022-07-12T14:12:48;1.57;;;0.70;;
12962;SDS011;6546;49.882;8.666;2022-07-12T14:15:15;2.65;;;0.75;;
12962;SDS011;6546;49.882;8.666;2022-07-12T14:18:01;3.45;;;0.77;;
12962;SDS011;6546;49.882;8.666;2022-07-12T14:20:29;1.53;;;0.80;;
12962;SDS011;6546;49.882;8.666;2022-07-12T14:22:58;0.90;;;0.88;;
12962;SDS011;6546;49.882;8.666;2022-07-12T14:25:25;1.10;;;0.60;;
12962;SDS011;6546;49.882;8.666;2022-07-12T14:27:52;1.13;;;0.75;;
12962;SDS011;6546;49.882;8.666;2022-07-12T14:30:18;1.73;;;0.70;;
12962;SDS011;6546;49.882;8.666;2022-07-12T14:32:46;0.80;;;0.70;;
12962;SDS011;6546;49.882;8.666;2022-07-12T14:35:13;1.20;;;0.90;;
12962;SDS011;6546;49.882;8.666;2022-07-12T14:37:40;1.00;;;0.60;;
12962;SDS011;6546;49.882;8.666;2022-07-12T14:40:10;0.85;;;0.70;;
12962;SDS011;6546;49.882;8.666;2022-07-12T14:42:41;0.83;;;0.63;;
12962;SDS011;6546;49.882;8.666;2022-07-12T14:45:09;1.17;;;0.65;;
12962;SDS011;6546;49.882;8.666;2022-07-12T14:47:36;2.53;;;0.60;;
12962;SDS011;6546;49.882;8.666;2022-07-12T14:50:03;1.52;;;0.60;;
12962;SDS011;6546;49.882;8.666;2022-07-12T14:52:32;1.15;;;0.40;;
12962;SDS011;6546;49.882;8.666;2022-07-12T14:54:59;0.75;;;0.70;;
12962;SDS011;6546;49.882;8.666;2022-07-12T14:57:28;4.20;;;0.73;;
12962;SDS011;6546;49.882;8.666;2022-07-12T14:59:55;2.67;;;0.70;;
12962;SDS011;6546;49.882;8.666;2022-07-12T15:02:22;2.47;;;0.82;;
12962;SDS011;6546;49.882;8.666;2022-07-12T15:04:49;1.40;;;0.60;;
12962;SDS011;6546;49.882;8.666;2022-07-12T15:07:16;0.70;;;0.70;;
12962;SDS011;6546;49.882;8.666;2022-07-12T15:09:44;2.40;;;0.70;;
12962;SDS011;6546;49.882;8.666;2022-07-12T15:12:12;1.30;;;0.70;;
12962;SDS011;6546;49.882;8.666;2022-07-12T15:14:41;13.57;;;7.63;;
12962;SDS011;6546;49.882;8.666;2022-07-12T15:17:10;4.13;;;3.00;;
12962;SDS011;6546;49.882;8.666;2022-07-12T15:19:36;4.10;;;2.20;;
12962;SDS011;6546;49.882;8.666;2022-07-12T15:22:04;2.30;;;1.20;;